Погода Сан-Хуан-де-Лимаина неделю

Рива, Никарагуа

21 - 27 февраля
  • 21февраля
    Сегодня
    +21°
    +31°
    Облачно с прояснениями
    ВремяПогодаТемператураВлажностьДавлениеВетер, м/сВероятность осадков
    00:00Ясно и безоблачно+27°C57 %755 мм11.3 м/с5 %
    03:00Ясно и безоблачно+26°C61 %754 мм10.2 м/с4 %
    06:00Ясно и безоблачно+24°C66 %755 мм10.6 м/с2 %
    09:00Ясно и безоблачно+27°C67 %756 мм12.0 м/с2 %
    12:00Практически безоблачно+30°C51 %754 мм12.7 м/с3 %
    15:00Облачно с прояснениями+31°C49 %753 мм10.6 м/с5 %
    18:00Небольшая облачность+27°C69 %754 мм8.1 м/с4 %
    21:00Практически безоблачно+25°C77 %755 мм9.5 м/с4 %
  • 22февраля
    Четверг
    +22°
    +30°
    Ясно и безоблачно
    ВремяПогодаТемператураВлажностьДавлениеВетер, м/сВероятность осадков
    00:00Небольшая облачность и лёгкий дождик+24°C79 %755 мм10.6 м/с14 %
    03:00Ясно и безоблачно+23°C67 %754 мм10.7 м/с3 %
    06:00Ясно и безоблачно+22°C66 %755 мм10.6 м/с2 %
    09:00Ясно и безоблачно+25°C52 %756 мм10.9 м/с2 %
    12:00Ясно и безоблачно+27°C47 %754 мм9.7 м/с2 %
    15:00Ясно и безоблачно+29°C46 %752 мм8.5 м/с2 %
    18:00Ясно и безоблачно+28°C51 %752 мм6.5 м/с2 %
    21:00Ясно и безоблачно+25°C65 %753 мм8.9 м/с2 %
  • 23февраля
    Пятница
    +22°
    +31°
    Ясно и безоблачно
    ВремяПогодаТемператураВлажностьДавлениеВетер, м/сВероятность осадков
    00:00Ясно и безоблачно+23°C71 %753 мм8.7 м/с2 %
    03:00Ясно и безоблачно+24°C74 %752 мм7.7 м/с2 %
    06:00Ясно и безоблачно+22°C76 %753 мм7.9 м/с2 %
    09:00Ясно и безоблачно+26°C64 %754 мм8.8 м/с2 %
    12:00Ясно и безоблачно+28°C52 %753 мм8.1 м/с2 %
    15:00Ясно и безоблачно+30°C45 %751 мм7.0 м/с2 %
    18:00Ясно и безоблачно+27°C54 %751 мм4.6 м/с2 %
    21:00Ясно и безоблачно+26°C67 %753 мм7.5 м/с2 %
  • 24февраля
    Суббота
    +22°
    +32°
    Ясно и безоблачно
    ВремяПогодаТемператураВлажностьДавлениеВетер, м/сВероятность осадков
    00:00Ясно и безоблачно+24°C69 %753 мм7.5 м/с2 %
    03:00Ясно и безоблачно+24°C72 %753 мм6.8 м/с2 %
    06:00Ясно и безоблачно+23°C80 %754 мм5.1 м/с2 %
    09:00Ясно и безоблачно+27°C63 %755 мм7.4 м/с4 %
    12:00Ясно и безоблачно+29°C50 %754 мм8.3 м/с2 %
    15:00Ясно и безоблачно+31°C43 %752 мм8.6 м/с2 %
    18:00Ясно и безоблачно+29°C52 %753 мм7.3 м/с2 %
    21:00Ясно и безоблачно+26°C75 %755 мм8.6 м/с2 %
  • 25февраля
    Воскресенье
    +23°
    +31°
    Ясно и безоблачно
    ВремяПогодаТемператураВлажностьДавлениеВетер, м/сВероятность осадков
    00:00Ясно и безоблачно+25°C68 %756 мм8.2 м/с2 %
    03:00Ясно и безоблачно+24°C67 %755 мм8.6 м/с4 %
    06:00Ясно и безоблачно+23°C66 %756 мм9.6 м/с2 %
    09:00Ясно и безоблачно+26°C56 %757 мм11.8 м/с2 %
    12:00Ясно и безоблачно+29°C47 %755 мм11.6 м/с2 %
    15:00Ясно и безоблачно+30°C39 %753 мм10.2 м/с2 %
    18:00Ясно и безоблачно+28°C52 %753 мм8.9 м/с2 %
    21:00Ясно и безоблачно+26°C66 %755 мм8.5 м/с2 %
Мы используем cookies
Соглашаюсь